Aérodrome :
LOGIN :

S'inscrire | Disclaimer

   EN    FR    IT 

 










Légende :    VFR   VFR Marginal   IFR   IFR Intensif   IFR Très Intensif
Visi : 
Plafond : 
>= 8 km
>= 3000ft
5 à 8 km
1000 à 3000 ft
1500m à 5 km
500 à 1000 ft
800 à 1500m
200 à 500 ft
< 800m
< 200 ft
Symboles :   Orages  Brouillard  Fortes neiges  Fortes précipitations  Vent > 20 kt
SIGMETs :   Divers  Orages  Givrage  Turbulence  Onde Orograph.  Cendres Volcan.







- Altitude de l'aérodrome : 124 ft
- Code IATA : RNS
- Voir les cartes d'approche


LFRN - Rennes

DERNIER METAR :
  • 172230Z AUTO 36005KT 9999 OVC039 14/13 Q1020 NOSIG

METARs EXPIRÉS :
  • 172200Z AUTO 33004KT 9999 -RA OVC038 14/13 Q1020 NOSIG
  • 172130Z AUTO 36005KT 9999 BKN036/// BKN050/// OVC096/// ///TCU 14/12 Q1020 BECMG NSC
  • 172100Z AUTO 36006KT 9999 -RA FEW035/// BKN056/// BKN074/// ///TCU 14/12 Q1020 BECMG NSC
  • 172030Z AUTO 01006KT 9999 OVC036 15/12 Q1020 NOSIG
  • 172000Z AUTO 03007KT 9999 BKN039 OVC045 15/11 Q1020 NOSIG

TAF AMD TAF LFRN
Valide du 17 à 21h jusqu'au 18 à 18h UTC


172119Z 1721/1818 02008KT CAVOK
TEMPO 1721/1802 -SHRA BKN040
ATIS : +33 2 99 67 72 50
Pas de NOTAMs connus pour ce terrain.



MET'MAP, la Météo Aéronautique d'un coup d'oeil ! - Copyright ORBIFLY Décembre 2007 - Disclaimer

ORBIFLY MET'MAP TEAM :

Programmation & Développement : Alexandra Zaïnal
Conception & Développement : Baudouin d'Aumeries
Co-Programmation & Développement : Marc-Olivier Méhu
Soutien technique & logistique : Manuel Goepfert

Contact : metmap@orbifly.com




SOURCES & CREDITS :

   NOAA